sensor_id;sensor_type;location;lat;lon;timestamp;P1;durP1;ratioP1;P2;durP2;ratioP2
55732;SDS011;41637;52.364;9.910;2023-07-20T00:00:06;1.50;;;0.70;;
55732;SDS011;41637;52.364;9.910;2023-07-20T00:02:33;3.20;;;0.90;;
55732;SDS011;41637;52.364;9.910;2023-07-20T00:05:00;2.30;;;0.80;;
55732;SDS011;41637;52.364;9.910;2023-07-20T00:07:27;1.60;;;0.80;;
55732;SDS011;41637;52.364;9.910;2023-07-20T00:09:54;1.70;;;0.80;;
55732;SDS011;41637;52.364;9.910;2023-07-20T00:12:22;2.00;;;0.80;;
55732;SDS011;41637;52.364;9.910;2023-07-20T00:14:49;1.80;;;1.00;;
55732;SDS011;41637;52.364;9.910;2023-07-20T00:17:18;3.20;;;0.80;;
55732;SDS011;41637;52.364;9.910;2023-07-20T00:19:45;1.80;;;1.00;;
55732;SDS011;41637;52.364;9.910;2023-07-20T00:22:12;1.70;;;0.90;;
55732;SDS011;41637;52.364;9.910;2023-07-20T00:24:39;2.20;;;0.90;;
55732;SDS011;41637;52.364;9.910;2023-07-20T00:27:06;2.00;;;0.80;;
55732;SDS011;41637;52.364;9.910;2023-07-20T00:29:33;2.10;;;0.70;;
55732;SDS011;41637;52.364;9.910;2023-07-20T00:32:00;1.70;;;0.90;;
55732;SDS011;41637;52.364;9.910;2023-07-20T00:34:27;1.30;;;0.80;;
55732;SDS011;41637;52.364;9.910;2023-07-20T00:36:54;1.30;;;0.60;;
55732;SDS011;41637;52.364;9.910;2023-07-20T00:39:21;1.70;;;0.70;;
55732;SDS011;41637;52.364;9.910;2023-07-20T00:41:48;1.80;;;0.70;;
55732;SDS011;41637;52.364;9.910;2023-07-20T00:44:15;3.10;;;0.60;;
55732;SDS011;41637;52.364;9.910;2023-07-20T00:46:42;2.10;;;0.90;;
55732;SDS011;41637;52.364;9.910;2023-07-20T00:49:10;2.10;;;0.70;;
55732;SDS011;41637;52.364;9.910;2023-07-20T00:51:36;2.10;;;0.70;;
55732;SDS011;41637;52.364;9.910;2023-07-20T00:54:04;2.60;;;1.00;;
55732;SDS011;41637;52.364;9.910;2023-07-20T00:56:31;2.50;;;0.80;;
55732;SDS011;41637;52.364;9.910;2023-07-20T00:58:58;2.30;;;0.70;;
55732;SDS011;41637;52.364;9.910;2023-07-20T01:01:25;2.80;;;0.90;;
55732;SDS011;41637;52.364;9.910;2023-07-20T01:03:52;1.70;;;0.70;;
55732;SDS011;41637;52.364;9.910;2023-07-20T01:09:19;2.00;;;0.70;;
55732;SDS011;41637;52.364;9.910;2023-07-20T01:11:59;2.10;;;1.00;;
55732;SDS011;41637;52.364;9.910;2023-07-20T01:14:34;2.00;;;0.80;;
55732;SDS011;41637;52.364;9.910;2023-07-20T01:17:01;1.60;;;0.80;;
55732;SDS011;41637;52.364;9.910;2023-07-20T01:19:28;3.00;;;0.90;;
55732;SDS011;41637;52.364;9.910;2023-07-20T01:22:03;2.20;;;0.80;;
55732;SDS011;41637;52.364;9.910;2023-07-20T01:33:16;1.90;;;0.80;;
55732;SDS011;41637;52.364;9.910;2023-07-20T01:35:46;2.80;;;0.90;;
55732;SDS011;41637;52.364;9.910;2023-07-20T01:38:19;2.00;;;0.70;;
55732;SDS011;41637;52.364;9.910;2023-07-20T01:40:47;2.10;;;0.90;;
55732;SDS011;41637;52.364;9.910;2023-07-20T01:43:15;1.70;;;0.80;;
55732;SDS011;41637;52.364;9.910;2023-07-20T01:45:42;1.70;;;0.80;;
55732;SDS011;41637;52.364;9.910;2023-07-20T01:48:09;1.80;;;1.00;;
55732;SDS011;41637;52.364;9.910;2023-07-20T01:50:37;2.30;;;1.00;;
55732;SDS011;41637;52.364;9.910;2023-07-20T01:53:04;2.20;;;0.90;;
55732;SDS011;41637;52.364;9.910;2023-07-20T01:55:31;1.60;;;0.90;;
55732;SDS011;41637;52.364;9.910;2023-07-20T01:57:58;1.90;;;0.90;;
55732;SDS011;41637;52.364;9.910;2023-07-20T02:00:27;1.80;;;1.00;;
55732;SDS011;41637;52.364;9.910;2023-07-20T02:02:54;1.90;;;0.90;;
55732;SDS011;41637;52.364;9.910;2023-07-20T02:05:21;2.80;;;1.10;;
55732;SDS011;41637;52.364;9.910;2023-07-20T02:07:48;2.00;;;1.00;;
55732;SDS011;41637;52.364;9.910;2023-07-20T02:10:15;1.70;;;1.00;;
55732;SDS011;41637;52.364;9.910;2023-07-20T02:12:42;3.20;;;1.10;;
55732;SDS011;41637;52.364;9.910;2023-07-20T02:15:10;2.10;;;0.90;;
55732;SDS011;41637;52.364;9.910;2023-07-20T02:17:37;2.90;;;1.10;;
55732;SDS011;41637;52.364;9.910;2023-07-20T02:20:04;2.80;;;0.90;;
55732;SDS011;41637;52.364;9.910;2023-07-20T02:22:35;3.40;;;1.00;;
55732;SDS011;41637;52.364;9.910;2023-07-20T02:25:03;2.30;;;0.90;;
55732;SDS011;41637;52.364;9.910;2023-07-20T02:27:31;2.30;;;0.90;;
55732;SDS011;41637;52.364;9.910;2023-07-20T02:29:58;1.90;;;0.90;;
55732;SDS011;41637;52.364;9.910;2023-07-20T02:32:25;2.50;;;1.00;;
55732;SDS011;41637;52.364;9.910;2023-07-20T02:34:52;1.80;;;0.80;;
55732;SDS011;41637;52.364;9.910;2023-07-20T02:37:19;2.20;;;1.00;;
55732;SDS011;41637;52.364;9.910;2023-07-20T02:39:46;2.20;;;0.90;;
55732;SDS011;41637;52.364;9.910;2023-07-20T02:42:13;1.80;;;0.90;;
55732;SDS011;41637;52.364;9.910;2023-07-20T02:44:40;1.70;;;0.90;;
55732;SDS011;41637;52.364;9.910;2023-07-20T02:47:07;2.40;;;0.90;;
55732;SDS011;41637;52.364;9.910;2023-07-20T02:49:34;1.80;;;1.10;;
55732;SDS011;41637;52.364;9.910;2023-07-20T02:52:01;1.80;;;0.90;;
55732;SDS011;41637;52.364;9.910;2023-07-20T02:54:28;2.80;;;1.50;;
55732;SDS011;41637;52.364;9.910;2023-07-20T02:56:56;1.80;;;1.00;;
55732;SDS011;41637;52.364;9.910;2023-07-20T02:59:23;2.70;;;1.10;;
55732;SDS011;41637;52.364;9.910;2023-07-20T03:01:50;2.60;;;1.40;;
55732;SDS011;41637;52.364;9.910;2023-07-20T03:04:17;2.40;;;1.10;;
55732;SDS011;41637;52.364;9.910;2023-07-20T03:06:44;1.80;;;1.10;;
55732;SDS011;41637;52.364;9.910;2023-07-20T03:09:11;2.10;;;1.30;;
55732;SDS011;41637;52.364;9.910;2023-07-20T03:11:38;2.20;;;1.20;;
55732;SDS011;41637;52.364;9.910;2023-07-20T03:14:05;2.20;;;1.50;;
55732;SDS011;41637;52.364;9.910;2023-07-20T03:16:32;2.90;;;1.30;;
55732;SDS011;41637;52.364;9.910;2023-07-20T03:19:00;2.50;;;1.40;;
55732;SDS011;41637;52.364;9.910;2023-07-20T03:21:27;3.70;;;1.30;;
55732;SDS011;41637;52.364;9.910;2023-07-20T03:23:55;2.20;;;1.20;;
55732;SDS011;41637;52.364;9.910;2023-07-20T03:26:21;3.70;;;1.50;;
55732;SDS011;41637;52.364;9.910;2023-07-20T03:28:49;3.10;;;1.40;;
55732;SDS011;41637;52.364;9.910;2023-07-20T03:31:16;4.80;;;1.20;;
55732;SDS011;41637;52.364;9.910;2023-07-20T03:33:43;3.60;;;1.50;;
55732;SDS011;41637;52.364;9.910;2023-07-20T03:36:10;3.20;;;1.30;;
55732;SDS011;41637;52.364;9.910;2023-07-20T03:38:37;2.20;;;1.50;;
55732;SDS011;41637;52.364;9.910;2023-07-20T03:41:04;3.70;;;1.50;;
55732;SDS011;41637;52.364;9.910;2023-07-20T03:43:31;2.70;;;1.40;;
55732;SDS011;41637;52.364;9.910;2023-07-20T03:45:58;2.30;;;1.40;;
55732;SDS011;41637;52.364;9.910;2023-07-20T03:48:25;3.10;;;1.40;;
55732;SDS011;41637;52.364;9.910;2023-07-20T03:50:52;3.70;;;1.60;;
55732;SDS011;41637;52.364;9.910;2023-07-20T03:53:20;2.50;;;1.30;;
55732;SDS011;41637;52.364;9.910;2023-07-20T03:55:47;3.70;;;1.50;;
55732;SDS011;41637;52.364;9.910;2023-07-20T03:58:15;2.10;;;1.20;;
55732;SDS011;41637;52.364;9.910;2023-07-20T04:00:44;2.90;;;1.50;;
55732;SDS011;41637;52.364;9.910;2023-07-20T04:03:12;2.30;;;1.30;;
55732;SDS011;41637;52.364;9.910;2023-07-20T04:05:39;3.10;;;1.20;;
55732;SDS011;41637;52.364;9.910;2023-07-20T04:08:06;3.30;;;1.30;;
55732;SDS011;41637;52.364;9.910;2023-07-20T04:10:34;3.10;;;1.50;;
55732;SDS011;41637;52.364;9.910;2023-07-20T04:13:01;2.20;;;1.30;;
55732;SDS011;41637;52.364;9.910;2023-07-20T04:15:28;2.60;;;1.30;;
55732;SDS011;41637;52.364;9.910;2023-07-20T04:17:56;3.00;;;1.40;;
55732;SDS011;41637;52.364;9.910;2023-07-20T04:20:23;4.10;;;1.30;;
55732;SDS011;41637;52.364;9.910;2023-07-20T04:22:50;5.10;;;1.40;;
55732;SDS011;41637;52.364;9.910;2023-07-20T04:25:20;5.40;;;1.40;;
55732;SDS011;41637;52.364;9.910;2023-07-20T04:27:47;3.10;;;1.40;;
55732;SDS011;41637;52.364;9.910;2023-07-20T04:30:16;3.60;;;1.50;;
55732;SDS011;41637;52.364;9.910;2023-07-20T04:32:45;3.50;;;1.20;;
55732;SDS011;41637;52.364;9.910;2023-07-20T04:35:56;2.70;;;1.20;;
55732;SDS011;41637;52.364;9.910;2023-07-20T04:38:15;2.50;;;1.30;;
55732;SDS011;41637;52.364;9.910;2023-07-20T04:40:47;3.30;;;1.10;;
55732;SDS011;41637;52.364;9.910;2023-07-20T04:43:15;3.50;;;1.40;;
55732;SDS011;41637;52.364;9.910;2023-07-20T04:45:43;3.80;;;1.40;;
55732;SDS011;41637;52.364;9.910;2023-07-20T04:48:10;2.40;;;1.50;;
55732;SDS011;41637;52.364;9.910;2023-07-20T04:50:39;2.20;;;1.40;;
55732;SDS011;41637;52.364;9.910;2023-07-20T04:53:07;2.50;;;1.60;;
55732;SDS011;41637;52.364;9.910;2023-07-20T04:55:38;2.60;;;1.60;;
55732;SDS011;41637;52.364;9.910;2023-07-20T04:58:06;3.10;;;1.50;;
55732;SDS011;41637;52.364;9.910;2023-07-20T05:00:33;2.80;;;1.60;;
55732;SDS011;41637;52.364;9.910;2023-07-20T05:03:00;4.00;;;1.70;;
55732;SDS011;41637;52.364;9.910;2023-07-20T05:05:27;3.70;;;1.90;;
55732;SDS011;41637;52.364;9.910;2023-07-20T05:07:54;3.60;;;1.80;;
55732;SDS011;41637;52.364;9.910;2023-07-20T05:10:21;2.80;;;1.60;;
55732;SDS011;41637;52.364;9.910;2023-07-20T05:12:47;3.30;;;1.50;;
55732;SDS011;41637;52.364;9.910;2023-07-20T05:15:14;3.40;;;1.50;;
55732;SDS011;41637;52.364;9.910;2023-07-20T05:17:41;2.60;;;1.30;;
55732;SDS011;41637;52.364;9.910;2023-07-20T05:20:08;2.80;;;1.40;;
55732;SDS011;41637;52.364;9.910;2023-07-20T05:22:39;2.90;;;1.50;;
55732;SDS011;41637;52.364;9.910;2023-07-20T05:25:10;2.30;;;1.20;;
55732;SDS011;41637;52.364;9.910;2023-07-20T05:27:37;3.10;;;1.40;;
55732;SDS011;41637;52.364;9.910;2023-07-20T05:30:06;2.30;;;1.40;;
55732;SDS011;41637;52.364;9.910;2023-07-20T05:32:34;2.60;;;1.50;;
55732;SDS011;41637;52.364;9.910;2023-07-20T05:35:01;3.30;;;1.50;;
55732;SDS011;41637;52.364;9.910;2023-07-20T05:37:28;5.50;;;2.00;;
55732;SDS011;41637;52.364;9.910;2023-07-20T05:39:55;3.50;;;1.90;;
55732;SDS011;41637;52.364;9.910;2023-07-20T05:42:21;3.60;;;1.80;;
55732;SDS011;41637;52.364;9.910;2023-07-20T05:44:48;4.10;;;2.30;;
55732;SDS011;41637;52.364;9.910;2023-07-20T05:47:16;2.70;;;1.80;;
55732;SDS011;41637;52.364;9.910;2023-07-20T05:49:42;5.80;;;2.20;;
55732;SDS011;41637;52.364;9.910;2023-07-20T05:52:09;4.10;;;2.30;;
55732;SDS011;41637;52.364;9.910;2023-07-20T05:54:36;4.00;;;2.30;;
55732;SDS011;41637;52.364;9.910;2023-07-20T05:57:04;3.80;;;2.20;;
55732;SDS011;41637;52.364;9.910;2023-07-20T05:59:31;3.80;;;2.00;;
55732;SDS011;41637;52.364;9.910;2023-07-20T06:01:58;3.00;;;2.10;;
55732;SDS011;41637;52.364;9.910;2023-07-20T06:04:25;3.80;;;2.20;;
55732;SDS011;41637;52.364;9.910;2023-07-20T06:06:52;3.40;;;2.50;;
55732;SDS011;41637;52.364;9.910;2023-07-20T06:09:19;3.80;;;2.60;;
55732;SDS011;41637;52.364;9.910;2023-07-20T06:11:46;4.00;;;2.20;;
55732;SDS011;41637;52.364;9.910;2023-07-20T06:14:13;2.80;;;2.30;;
55732;SDS011;41637;52.364;9.910;2023-07-20T06:16:40;3.40;;;2.30;;
55732;SDS011;41637;52.364;9.910;2023-07-20T06:19:07;5.30;;;2.20;;
55732;SDS011;41637;52.364;9.910;2023-07-20T06:21:37;3.90;;;2.70;;
55732;SDS011;41637;52.364;9.910;2023-07-20T06:24:04;5.30;;;2.70;;
55732;SDS011;41637;52.364;9.910;2023-07-20T06:26:31;3.50;;;2.40;;
55732;SDS011;41637;52.364;9.910;2023-07-20T06:29:07;5.20;;;2.20;;
55732;SDS011;41637;52.364;9.910;2023-07-20T06:31:35;5.10;;;2.10;;
55732;SDS011;41637;52.364;9.910;2023-07-20T06:34:02;3.20;;;2.00;;
55732;SDS011;41637;52.364;9.910;2023-07-20T06:36:29;3.50;;;2.20;;
55732;SDS011;41637;52.364;9.910;2023-07-20T06:38:56;2.30;;;1.80;;
55732;SDS011;41637;52.364;9.910;2023-07-20T06:41:26;2.60;;;1.80;;
55732;SDS011;41637;52.364;9.910;2023-07-20T06:43:56;2.80;;;1.60;;
55732;SDS011;41637;52.364;9.910;2023-07-20T06:46:25;2.60;;;1.90;;
55732;SDS011;41637;52.364;9.910;2023-07-20T06:48:53;3.30;;;2.20;;
55732;SDS011;41637;52.364;9.910;2023-07-20T06:51:23;4.50;;;2.20;;
55732;SDS011;41637;52.364;9.910;2023-07-20T06:53:51;3.30;;;2.30;;
55732;SDS011;41637;52.364;9.910;2023-07-20T06:56:18;3.20;;;2.10;;
55732;SDS011;41637;52.364;9.910;2023-07-20T06:58:48;4.10;;;2.30;;
55732;SDS011;41637;52.364;9.910;2023-07-20T07:01:15;4.40;;;2.30;;
55732;SDS011;41637;52.364;9.910;2023-07-20T07:03:43;2.70;;;1.70;;
55732;SDS011;41637;52.364;9.910;2023-07-20T07:06:10;3.50;;;1.80;;
55732;SDS011;41637;52.364;9.910;2023-07-20T07:08:37;2.30;;;1.60;;
55732;SDS011;41637;52.364;9.910;2023-07-20T07:11:04;2.30;;;1.60;;
55732;SDS011;41637;52.364;9.910;2023-07-20T07:13:31;2.50;;;1.50;;
55732;SDS011;41637;52.364;9.910;2023-07-20T07:15:58;2.50;;;1.60;;
55732;SDS011;41637;52.364;9.910;2023-07-20T07:18:25;2.10;;;1.50;;
55732;SDS011;41637;52.364;9.910;2023-07-20T07:20:53;2.60;;;1.50;;
55732;SDS011;41637;52.364;9.910;2023-07-20T07:23:20;2.50;;;1.80;;
55732;SDS011;41637;52.364;9.910;2023-07-20T07:25:47;2.40;;;1.80;;
55732;SDS011;41637;52.364;9.910;2023-07-20T07:28:14;2.70;;;1.70;;
55732;SDS011;41637;52.364;9.910;2023-07-20T07:30:41;1.50;;;1.20;;
55732;SDS011;41637;52.364;9.910;2023-07-20T07:33:08;2.30;;;1.10;;
55732;SDS011;41637;52.364;9.910;2023-07-20T07:35:36;2.90;;;1.20;;
55732;SDS011;41637;52.364;9.910;2023-07-20T07:38:03;2.00;;;1.30;;
55732;SDS011;41637;52.364;9.910;2023-07-20T07:40:49;1.50;;;1.00;;
55732;SDS011;41637;52.364;9.910;2023-07-20T07:43:16;2.80;;;0.70;;
55732;SDS011;41637;52.364;9.910;2023-07-20T07:45:44;1.40;;;0.80;;
55732;SDS011;41637;52.364;9.910;2023-07-20T07:48:11;1.90;;;0.80;;
55732;SDS011;41637;52.364;9.910;2023-07-20T07:50:38;2.10;;;1.00;;
55732;SDS011;41637;52.364;9.910;2023-07-20T07:53:08;1.60;;;1.00;;
55732;SDS011;41637;52.364;9.910;2023-07-20T07:55:36;1.90;;;1.00;;
55732;SDS011;41637;52.364;9.910;2023-07-20T07:58:03;2.40;;;1.00;;
55732;SDS011;41637;52.364;9.910;2023-07-20T08:00:30;1.40;;;0.80;;
55732;SDS011;41637;52.364;9.910;2023-07-20T08:02:56;1.30;;;0.70;;
55732;SDS011;41637;52.364;9.910;2023-07-20T08:05:24;1.50;;;0.50;;
55732;SDS011;41637;52.364;9.910;2023-07-20T08:07:51;1.70;;;0.60;;
55732;SDS011;41637;52.364;9.910;2023-07-20T08:10:18;1.30;;;0.60;;
55732;SDS011;41637;52.364;9.910;2023-07-20T08:12:45;1.40;;;0.40;;
55732;SDS011;41637;52.364;9.910;2023-07-20T08:15:12;2.30;;;0.60;;
55732;SDS011;41637;52.364;9.910;2023-07-20T08:17:41;3.10;;;0.80;;
55732;SDS011;41637;52.364;9.910;2023-07-20T08:20:12;2.20;;;0.60;;
55732;SDS011;41637;52.364;9.910;2023-07-20T08:22:39;1.60;;;0.60;;
55732;SDS011;41637;52.364;9.910;2023-07-20T08:25:06;2.20;;;0.60;;
55732;SDS011;41637;52.364;9.910;2023-07-20T08:27:33;2.00;;;0.70;;
55732;SDS011;41637;52.364;9.910;2023-07-20T08:30:01;1.90;;;0.70;;
55732;SDS011;41637;52.364;9.910;2023-07-20T08:32:27;1.00;;;0.70;;
55732;SDS011;41637;52.364;9.910;2023-07-20T08:34:54;5.00;;;0.80;;
55732;SDS011;41637;52.364;9.910;2023-07-20T08:37:21;1.80;;;0.60;;
55732;SDS011;41637;52.364;9.910;2023-07-20T08:39:48;1.20;;;0.70;;
55732;SDS011;41637;52.364;9.910;2023-07-20T08:42:15;2.10;;;0.90;;
55732;SDS011;41637;52.364;9.910;2023-07-20T08:44:43;1.70;;;0.80;;
55732;SDS011;41637;52.364;9.910;2023-07-20T08:47:12;3.20;;;1.00;;
55732;SDS011;41637;52.364;9.910;2023-07-20T08:49:42;2.10;;;0.80;;
55732;SDS011;41637;52.364;9.910;2023-07-20T08:52:08;1.30;;;0.60;;
55732;SDS011;41637;52.364;9.910;2023-07-20T08:54:36;1.50;;;0.70;;
55732;SDS011;41637;52.364;9.910;2023-07-20T08:57:04;1.90;;;0.80;;
55732;SDS011;41637;52.364;9.910;2023-07-20T08:59:32;3.10;;;0.70;;
55732;SDS011;41637;52.364;9.910;2023-07-20T09:02:03;1.80;;;0.50;;
55732;SDS011;41637;52.364;9.910;2023-07-20T09:04:30;4.00;;;0.60;;
55732;SDS011;41637;52.364;9.910;2023-07-20T09:06:57;2.20;;;0.60;;
55732;SDS011;41637;52.364;9.910;2023-07-20T09:09:25;1.10;;;0.40;;
55732;SDS011;41637;52.364;9.910;2023-07-20T09:11:52;2.10;;;0.50;;
55732;SDS011;41637;52.364;9.910;2023-07-20T09:14:19;2.30;;;0.50;;
55732;SDS011;41637;52.364;9.910;2023-07-20T09:19:16;1.50;;;0.50;;
55732;SDS011;41637;52.364;9.910;2023-07-20T09:21:44;3.40;;;0.70;;
55732;SDS011;41637;52.364;9.910;2023-07-20T09:24:12;3.10;;;0.60;;
55732;SDS011;41637;52.364;9.910;2023-07-20T09:26:42;1.40;;;0.50;;
55732;SDS011;41637;52.364;9.910;2023-07-20T09:29:10;1.70;;;0.40;;
55732;SDS011;41637;52.364;9.910;2023-07-20T09:31:38;1.40;;;0.40;;
55732;SDS011;41637;52.364;9.910;2023-07-20T09:34:07;1.80;;;0.50;;
55732;SDS011;41637;52.364;9.910;2023-07-20T09:36:35;4.60;;;0.70;;
55732;SDS011;41637;52.364;9.910;2023-07-20T09:39:05;2.20;;;0.50;;
55732;SDS011;41637;52.364;9.910;2023-07-20T09:41:41;2.40;;;0.60;;
55732;SDS011;41637;52.364;9.910;2023-07-20T09:44:15;1.10;;;0.30;;
55732;SDS011;41637;52.364;9.910;2023-07-20T09:46:46;1.00;;;0.30;;
55732;SDS011;41637;52.364;9.910;2023-07-20T09:49:17;1.70;;;0.50;;
55732;SDS011;41637;52.364;9.910;2023-07-20T09:51:47;0.90;;;0.40;;
55732;SDS011;41637;52.364;9.910;2023-07-20T09:54:14;2.40;;;0.40;;
55732;SDS011;41637;52.364;9.910;2023-07-20T09:56:42;1.70;;;0.30;;
55732;SDS011;41637;52.364;9.910;2023-07-20T09:59:10;1.50;;;0.30;;
55732;SDS011;41637;52.364;9.910;2023-07-20T10:01:37;2.80;;;0.70;;
55732;SDS011;41637;52.364;9.910;2023-07-20T10:04:08;1.00;;;0.30;;
55732;SDS011;41637;52.364;9.910;2023-07-20T10:06:39;1.40;;;0.30;;
55732;SDS011;41637;52.364;9.910;2023-07-20T10:09:10;1.90;;;0.50;;
55732;SDS011;41637;52.364;9.910;2023-07-20T10:11:40;1.40;;;0.30;;
55732;SDS011;41637;52.364;9.910;2023-07-20T10:14:09;1.80;;;0.50;;
55732;SDS011;41637;52.364;9.910;2023-07-20T10:16:43;1.40;;;0.30;;
55732;SDS011;41637;52.364;9.910;2023-07-20T10:19:34;0.80;;;0.30;;
55732;SDS011;41637;52.364;9.910;2023-07-20T10:22:16;1.10;;;0.30;;
55732;SDS011;41637;52.364;9.910;2023-07-20T10:24:46;1.80;;;0.40;;
55732;SDS011;41637;52.364;9.910;2023-07-20T10:27:14;0.70;;;0.20;;
55732;SDS011;41637;52.364;9.910;2023-07-20T10:29:41;1.30;;;0.40;;
55732;SDS011;41637;52.364;9.910;2023-07-20T10:32:08;0.70;;;0.30;;
55732;SDS011;41637;52.364;9.910;2023-07-20T10:34:35;1.30;;;0.40;;
55732;SDS011;41637;52.364;9.910;2023-07-20T10:37:02;2.00;;;0.40;;
55732;SDS011;41637;52.364;9.910;2023-07-20T10:39:32;1.20;;;0.50;;
55732;SDS011;41637;52.364;9.910;2023-07-20T10:42:00;1.50;;;0.50;;
55732;SDS011;41637;52.364;9.910;2023-07-20T10:44:29;0.70;;;0.30;;
55732;SDS011;41637;52.364;9.910;2023-07-20T10:47:00;3.90;;;0.40;;
55732;SDS011;41637;52.364;9.910;2023-07-20T10:49:29;1.70;;;0.40;;
55732;SDS011;41637;52.364;9.910;2023-07-20T10:52:00;1.50;;;0.30;;
55732;SDS011;41637;52.364;9.910;2023-07-20T10:57:21;1.20;;;0.40;;
55732;SDS011;41637;52.364;9.910;2023-07-20T10:59:49;1.70;;;0.40;;
55732;SDS011;41637;52.364;9.910;2023-07-20T11:02:17;2.60;;;0.90;;
55732;SDS011;41637;52.364;9.910;2023-07-20T11:04:46;2.50;;;0.50;;
55732;SDS011;41637;52.364;9.910;2023-07-20T11:07:17;1.80;;;0.30;;
55732;SDS011;41637;52.364;9.910;2023-07-20T11:10:12;1.30;;;0.50;;
55732;SDS011;41637;52.364;9.910;2023-07-20T11:12:40;0.90;;;0.40;;
55732;SDS011;41637;52.364;9.910;2023-07-20T11:15:07;5.10;;;1.40;;
55732;SDS011;41637;52.364;9.910;2023-07-20T11:17:33;1.30;;;0.50;;
55732;SDS011;41637;52.364;9.910;2023-07-20T11:20:02;1.70;;;0.40;;
55732;SDS011;41637;52.364;9.910;2023-07-20T11:22:32;1.30;;;0.40;;
55732;SDS011;41637;52.364;9.910;2023-07-20T11:24:59;0.90;;;0.30;;
55732;SDS011;41637;52.364;9.910;2023-07-20T11:27:26;1.00;;;0.30;;
55732;SDS011;41637;52.364;9.910;2023-07-20T11:29:54;0.70;;;0.20;;
55732;SDS011;41637;52.364;9.910;2023-07-20T11:32:21;0.60;;;0.30;;
55732;SDS011;41637;52.364;9.910;2023-07-20T11:34:49;1.20;;;0.40;;
55732;SDS011;41637;52.364;9.910;2023-07-20T11:37:19;1.50;;;0.50;;
55732;SDS011;41637;52.364;9.910;2023-07-20T11:39:46;1.00;;;0.30;;
55732;SDS011;41637;52.364;9.910;2023-07-20T11:42:13;1.40;;;0.40;;
55732;SDS011;41637;52.364;9.910;2023-07-20T11:45:01;1.80;;;0.40;;
55732;SDS011;41637;52.364;9.910;2023-07-20T11:47:31;1.90;;;0.50;;
55732;SDS011;41637;52.364;9.910;2023-07-20T11:50:02;2.40;;;0.30;;
55732;SDS011;41637;52.364;9.910;2023-07-20T11:52:30;1.40;;;0.30;;
55732;SDS011;41637;52.364;9.910;2023-07-20T11:54:58;1.00;;;0.30;;
55732;SDS011;41637;52.364;9.910;2023-07-20T11:57:25;1.10;;;0.40;;
55732;SDS011;41637;52.364;9.910;2023-07-20T11:59:55;1.50;;;0.40;;
55732;SDS011;41637;52.364;9.910;2023-07-20T12:02:27;1.80;;;0.50;;
55732;SDS011;41637;52.364;9.910;2023-07-20T12:04:55;1.80;;;0.50;;
55732;SDS011;41637;52.364;9.910;2023-07-20T12:07:22;1.20;;;0.30;;
55732;SDS011;41637;52.364;9.910;2023-07-20T12:10:08;1.80;;;0.60;;
55732;SDS011;41637;52.364;9.910;2023-07-20T12:12:39;1.40;;;0.30;;
55732;SDS011;41637;52.364;9.910;2023-07-20T12:17:52;1.10;;;0.30;;
55732;SDS011;41637;52.364;9.910;2023-07-20T12:20:26;1.50;;;0.40;;
55732;SDS011;41637;52.364;9.910;2023-07-20T12:22:55;2.00;;;0.40;;
55732;SDS011;41637;52.364;9.910;2023-07-20T12:25:31;1.10;;;0.40;;
55732;SDS011;41637;52.364;9.910;2023-07-20T12:28:04;2.00;;;0.40;;
55732;SDS011;41637;52.364;9.910;2023-07-20T12:30:31;1.70;;;0.50;;
55732;SDS011;41637;52.364;9.910;2023-07-20T12:32:58;1.80;;;0.30;;
55732;SDS011;41637;52.364;9.910;2023-07-20T12:35:24;1.60;;;0.40;;
55732;SDS011;41637;52.364;9.910;2023-07-20T12:37:51;1.80;;;0.30;;
55732;SDS011;41637;52.364;9.910;2023-07-20T12:40:19;1.00;;;0.20;;
55732;SDS011;41637;52.364;9.910;2023-07-20T12:42:46;1.50;;;0.40;;
55732;SDS011;41637;52.364;9.910;2023-07-20T12:45:13;1.10;;;0.30;;
55732;SDS011;41637;52.364;9.910;2023-07-20T12:47:40;1.20;;;0.40;;
55732;SDS011;41637;52.364;9.910;2023-07-20T12:50:09;1.90;;;0.50;;
55732;SDS011;41637;52.364;9.910;2023-07-20T12:52:37;1.10;;;0.40;;
55732;SDS011;41637;52.364;9.910;2023-07-20T12:55:09;1.00;;;0.30;;
55732;SDS011;41637;52.364;9.910;2023-07-20T12:57:36;1.70;;;0.40;;
55732;SDS011;41637;52.364;9.910;2023-07-20T13:00:08;2.00;;;0.60;;
55732;SDS011;41637;52.364;9.910;2023-07-20T13:02:37;1.70;;;0.60;;
55732;SDS011;41637;52.364;9.910;2023-07-20T13:05:04;1.80;;;0.50;;
55732;SDS011;41637;52.364;9.910;2023-07-20T13:07:35;1.70;;;0.40;;
55732;SDS011;41637;52.364;9.910;2023-07-20T13:10:06;1.30;;;0.20;;
55732;SDS011;41637;52.364;9.910;2023-07-20T13:12:34;1.60;;;0.30;;
55732;SDS011;41637;52.364;9.910;2023-07-20T13:15:02;0.60;;;0.30;;
55732;SDS011;41637;52.364;9.910;2023-07-20T13:17:32;2.30;;;0.40;;
55732;SDS011;41637;52.364;9.910;2023-07-20T13:20:02;1.90;;;0.40;;
55732;SDS011;41637;52.364;9.910;2023-07-20T13:22:34;0.90;;;0.30;;
55732;SDS011;41637;52.364;9.910;2023-07-20T13:25:01;1.30;;;0.30;;
55732;SDS011;41637;52.364;9.910;2023-07-20T13:27:28;1.20;;;0.40;;
55732;SDS011;41637;52.364;9.910;2023-07-20T13:29:58;2.10;;;0.40;;
55732;SDS011;41637;52.364;9.910;2023-07-20T13:32:26;1.50;;;0.30;;
55732;SDS011;41637;52.364;9.910;2023-07-20T13:34:56;1.40;;;0.40;;
55732;SDS011;41637;52.364;9.910;2023-07-20T13:37:23;2.90;;;0.60;;
55732;SDS011;41637;52.364;9.910;2023-07-20T13:39:50;2.10;;;0.30;;
55732;SDS011;41637;52.364;9.910;2023-07-20T13:42:17;1.30;;;0.30;;
55732;SDS011;41637;52.364;9.910;2023-07-20T13:44:45;1.10;;;0.40;;
55732;SDS011;41637;52.364;9.910;2023-07-20T13:47:12;2.10;;;0.40;;
55732;SDS011;41637;52.364;9.910;2023-07-20T13:49:43;1.90;;;0.40;;
55732;SDS011;41637;52.364;9.910;2023-07-20T13:52:14;1.60;;;0.30;;
55732;SDS011;41637;52.364;9.910;2023-07-20T13:54:44;1.10;;;0.40;;
55732;SDS011;41637;52.364;9.910;2023-07-20T13:57:16;3.30;;;0.60;;
55732;SDS011;41637;52.364;9.910;2023-07-20T13:59:43;1.70;;;0.50;;
55732;SDS011;41637;52.364;9.910;2023-07-20T14:02:11;2.30;;;0.70;;
55732;SDS011;41637;52.364;9.910;2023-07-20T14:04:42;2.90;;;1.00;;
55732;SDS011;41637;52.364;9.910;2023-07-20T14:07:09;2.50;;;0.90;;
55732;SDS011;41637;52.364;9.910;2023-07-20T14:09:37;3.10;;;0.70;;
55732;SDS011;41637;52.364;9.910;2023-07-20T14:12:24;5.00;;;0.80;;
55732;SDS011;41637;52.364;9.910;2023-07-20T14:14:50;2.70;;;0.60;;
55732;SDS011;41637;52.364;9.910;2023-07-20T14:17:17;6.40;;;0.70;;
55732;SDS011;41637;52.364;9.910;2023-07-20T14:19:44;3.00;;;0.70;;
55732;SDS011;41637;52.364;9.910;2023-07-20T14:22:12;2.40;;;0.60;;
55732;SDS011;41637;52.364;9.910;2023-07-20T14:24:38;1.50;;;0.60;;
55732;SDS011;41637;52.364;9.910;2023-07-20T14:27:05;2.20;;;0.50;;
55732;SDS011;41637;52.364;9.910;2023-07-20T14:29:32;1.00;;;0.40;;
55732;SDS011;41637;52.364;9.910;2023-07-20T14:32:03;2.00;;;0.50;;
55732;SDS011;41637;52.364;9.910;2023-07-20T14:34:32;2.90;;;0.60;;
55732;SDS011;41637;52.364;9.910;2023-07-20T14:37:02;1.50;;;0.50;;
55732;SDS011;41637;52.364;9.910;2023-07-20T14:39:30;2.30;;;0.80;;
55732;SDS011;41637;52.364;9.910;2023-07-20T14:41:57;2.90;;;0.90;;
55732;SDS011;41637;52.364;9.910;2023-07-20T14:44:24;1.20;;;0.50;;
55732;SDS011;41637;52.364;9.910;2023-07-20T14:46:51;3.20;;;0.60;;
55732;SDS011;41637;52.364;9.910;2023-07-20T14:49:38;1.20;;;0.40;;
55732;SDS011;41637;52.364;9.910;2023-07-20T14:52:05;2.20;;;0.60;;
55732;SDS011;41637;52.364;9.910;2023-07-20T14:54:41;1.20;;;0.50;;
55732;SDS011;41637;52.364;9.910;2023-07-20T14:57:08;3.20;;;0.60;;
55732;SDS011;41637;52.364;9.910;2023-07-20T14:59:40;1.70;;;0.50;;
55732;SDS011;41637;52.364;9.910;2023-07-20T15:02:10;2.10;;;0.50;;
55732;SDS011;41637;52.364;9.910;2023-07-20T15:04:45;1.30;;;0.40;;
55732;SDS011;41637;52.364;9.910;2023-07-20T15:07:13;1.40;;;0.50;;
55732;SDS011;41637;52.364;9.910;2023-07-20T15:09:40;1.40;;;0.50;;
55732;SDS011;41637;52.364;9.910;2023-07-20T15:12:10;2.70;;;0.60;;
55732;SDS011;41637;52.364;9.910;2023-07-20T15:14:41;1.70;;;0.40;;